logo
Search for airport 
image banner adimage banner adimage banner ad
image banner ad

LSPH - Winterthur

Located in Winterthur, Switzerland

ICAO - LSPH, IATA -

Data provided by Airmate  

General information

Coordinates: N47°30'54" E8°46'19"
Elevation is 1506 feet MSL.
Magnetic variation is 3.514° East
View others Airports in Zurich

Operational data

Special qualification required
Current time UTC:
Current local time:
Weather at : LSMD - Dubendorf ( 16 km )
METAR: LSMD 191650Z AUTO 27006KT 210V320 9999NDV -RA SCT021 OVC024 05/03 Q1014 RMK
View NOTAMs / SUP AIP / TFR affecting this airport [VIEW]
Communications frequencies: [VIEW]

Runways:

RWY identifierQFULength (ft)Width (ft)SurfaceLDA (ft)
0115°190398GRASS
19195°190398GRASS

Airport contact information

Address: Winterthur Switzerland

Other aviation service providers

Aviation club (not for profit)

Segelfluggruppe Winterthur

Segelfluggruppe Winterthur
alois.sauter@googlemail.com+41794302852
+41794302852

Verein Der Schweizer Segelfliegerinnen

Verein Der Schweizer Segelfliegerinnen
bruna.lanfranchi@bluewin.ch+41797507228
+41797507228

Zürcher Hochschule Für Angewandte Wissenschaften

Zürcher Hochschule Für Angewandte Wissenschaften
t-ato.soe@zhaw.ch+41589347046

Satellite view of LSPH